Airfield :
LOGIN :

Register | Disclaimer

   EN    FR    IT 

 










Legend :    VFR   Marginal VFR   IFR   Intensive IFR   Very Intensive IFR
Visi :
Ceiling :
>= 8 km
>= 3000ft
5 to 8 km
1000 to 3000 ft
1500m to 5 km
500 to 1000 ft
800 to 1500m
200 to 500 ft
< 800m
< 200 ft
Symbols :   Thunderstorms  Fog  Heavy snow  Heavy precipitations  Wind > 20 kt
SIGMETs :     Misc.  Thunderstorms  Icing  Turbulence  Mountain Waves  Volcanic Ashes







- Airport Elevation : 26 ft


ETNT - Wittmundhaven AB

CURRENT METAR :
  • 210620Z 34012KT 0500 R26/0900D FG VV000 12/12 Q1009 RED RED

EXPIRED METARs :
  • 210520Z 34010KT 0800 R26/2600D FG VV000 12/11 Q1008 RED RED
  • 210438Z 33011KT 1200 R26/3800D BR BKN000 BKN130 12/12 Q1008 RED RED
  • 210425Z 34010KT 3800 BR BKN001 BKN130 12/12 Q1008 RED RED
  • 210420Z 34011KT 5000 BR BKN001 BKN130 12/12 Q1008 RED RED
  • 210355Z 34009KT 7000 BKN003 BKN130 13/12 Q1008 YLO

TAF AMD TAF ETNT
Valid from the 21 at 06:00 until the 21 at 14:00 UTC


210610Z 2106/2114 34012KT 2500 BR BKN001
TEMPO 2106/2108 34012KT 0700 FG BKN001
BECMG 2108/2110 34012KT 5000 NSW BKN004
TEMPO 2110/2114 32012KT 8000 NSW SCT004 BKN007 BY ETGL
No reported NOTAMs for that airfield.
1 SIGMET reported for the Bremen FIR (EDWW) :
 
Embedded thunderstorms
EDWW SIGMET 5 VALID 210600/210800 EDZF
EDWW BREMEN FIR EMBD TS OBS APRX 30NM WID LINE BTN N5338 E00933 - N5208 E00856 TOP FL340 MOV SSW NC=



MET'MAP, your aeronautical weather chart ! - Copyright ORBIFLY December 2007 - Disclaimer

ORBIFLY MET'MAP TEAM :

Programming & Development : Alexandra Zaïnal
Concept & Development : Baudouin d'Aumeries
Co-Development & Prog : Marc-Olivier Méhu
Technical & hardware support : Manuel Goepfert

Contact : metmap@orbifly.com




SOURCES & CREDITS :

   NOAA